EGPE

Inverness Airport

Inverness, United Kingdom

EGPE 110520Z AUTO 24009KT 9999 -DZ SCT030/// 01/M01 Q0987

Observed Flight Rules
Dec-11 @ 05:20 UTC (14 minutes ago) Visual Flight Rules
Wind Visibility Clouds Conditions
240° at 9 knots 10,000+ meters
  • Scattered at 3,000' AGL
  • Light Drizzle
Temperatures Readings
Current 1°C / 34°F
Dewpoint -1°C / 30°F
Humidity 87%
Altimeter 29.14" Hg
Pressure 987 hPa
Elevation 9
Observed Flight Rules
Dec-11 @ 05:20 UTC
(14 minutes ago)
VFR
Wind Visibility
240° at 9 knots 10,000+ meters
Clouds
  • Scattered at 3,000' AGL
Conditions
  • Light Drizzle
Temperature Dewpoint
1°C / 34°F -1°C / 30°F
Humidity Altimeter Pressure
87% 29.14" Hg 987 hPa